Airfield :
LOGIN :

Register | Disclaimer

   EN    FR    IT 

 










Legend :    VFR   Marginal VFR   IFR   Intensive IFR   Very Intensive IFR
Visi :
Ceiling :
>= 8 km
>= 3000ft
5 to 8 km
1000 to 3000 ft
1500m to 5 km
500 to 1000 ft
800 to 1500m
200 to 500 ft
< 800m
< 200 ft
Symbols :   Thunderstorms  Fog  Heavy snow  Heavy precipitations  Wind > 20 kt
SIGMETs :     Misc.  Thunderstorms  Icing  Turbulence  Mountain Waves  Volcanic Ashes






- Airport Elevation : 46 ft
- IATA code : SNN


EINN - Shannon

CURRENT METAR :
  • 162030Z 30006KT 9999 FEW018 SCT060 14/10 Q1006 NOSIG

EXPIRED METARs :
  • 162000Z 28008KT 9999 FEW020 SCT070 15/10 Q1005 NOSIG
  • 161930Z 28009KT 9999 FEW020 BKN070 15/10 Q1005 NOSIG
  • 161900Z 28009KT 9999 SCT024 BKN070 16/10 Q1005 NOSIG
  • 161830Z 28010KT 9999 FEW040 SCT070 17/09 Q1004 NOSIG
  • 161800Z 28011KT 9999 FEW040 SCT050 16/07 Q1004 NOSIG
  • 161730Z 28011KT 9999 FEW040 17/07 Q1004 NOSIG
  • 161700Z 28011KT 9999 FEW040 17/07 Q1004 NOSIG
  • 161630Z 29011KT 9999 FEW040 17/08 Q1004 NOSIG
  • 161600Z 27012KT 9999 FEW040 17/08 Q1004 NOSIG

TAF TAF EINN
Valid from the 16 at 18:00 until the 17 at 18:00 UTC


161700Z 1618/1718 29010KT 9999 SCT040
PROB30
TEMPO 1623/1703 4000 -DZ BKN014
BECMG 1700/1702 34008KT



MET'MAP, your aeronautical weather chart ! - Copyright ORBIFLY December 2007 - Disclaimer

ORBIFLY MET'MAP TEAM :

Programming & Development : Alexandra Zaïnal
Original concept : Baudouin d'Aumeries
Technical & hardware support : Manuel Goepfert
Assistance : Marc-Olivier Méhu




SOURCES & CREDITS :

   NOAA